Time;durP1;ratioP1;P1;durP2;ratioP2;P2;SDS_P1;SDS_P2;PMS_P1;PMS_P2;Temp;Humidity;BMP_temperature;BMP_pressure;BME280_temperature;BME280_humidity;BME280_pressure;Samples;Min_cycle;Max_cycle;Signal;HPM_P1;HPM_P2
2022/12/13 00:00:23;;;;;;;6.23;4.97;;;;;;;7.89;69.34;94068.38;5068961;28;20194;-49
2022/12/13 00:02:50;;;;;;;5.77;4.30;;;;;;;7.88;69.28;94065.03;5068945;28;20187;-48
2022/12/13 00:05:17;;;;;;;5.67;4.57;;;;;;;7.88;69.32;94069.31;5068905;28;20216;-49
2022/12/13 00:07:43;;;;;;;4.97;4.07;;;;;;;7.87;69.33;94071.06;5072607;28;20233;-47
2022/12/13 00:10:11;;;;;;;4.73;4.23;;;;;;;7.88;69.12;94082.84;5072872;28;20197;-46
2022/12/13 00:12:38;;;;;;;5.00;4.50;;;;;;;7.87;69.26;94081.25;5072386;28;20576;-49
2022/12/13 00:15:06;;;;;;;5.13;4.50;;;;;;;7.86;69.33;94081.34;5072699;28;20693;-48
2022/12/13 00:17:33;;;;;;;5.47;4.87;;;;;;;7.72;69.18;94063.03;5072447;28;20277;-51
2022/12/13 00:20:00;;;;;;;4.30;3.90;;;;;;;7.86;69.15;94084.72;5072753;28;20178;-47
2022/12/13 00:22:27;;;;;;;4.83;4.43;;;;;;;7.86;69.17;94083.91;5072354;28;20191;-49
2022/12/13 00:24:55;;;;;;;4.77;4.27;;;;;;;7.80;69.24;94083.50;5072280;28;20198;-48
2022/12/13 00:27:23;;;;;;;4.97;4.47;;;;;;;7.84;69.12;94095.97;5072363;28;20198;-46
2022/12/13 00:29:50;;;;;;;5.57;4.57;;;;;;;7.83;69.18;94097.72;5072284;28;20194;-47
2022/12/13 00:32:17;;;;;;;5.00;4.43;;;;;;;7.75;69.11;94088.22;5071995;28;20222;-47
2022/12/13 00:34:44;;;;;;;5.07;4.57;;;;;;;7.81;69.18;94097.03;5072562;28;20194;-48
2022/12/13 00:37:11;;;;;;;4.67;4.17;;;;;;;7.80;69.10;94091.16;5072384;28;20182;-46
2022/12/13 00:39:38;;;;;;;5.63;4.90;;;;;;;7.77;69.09;94091.44;5072019;28;20546;-50
2022/12/13 00:42:05;;;;;;;6.27;4.97;;;;;;;7.79;68.93;94093.84;5072312;28;20183;-49
2022/12/13 00:44:34;;;;;;;5.77;4.80;;;;;;;7.75;68.94;94084.88;5072074;28;20182;-46
2022/12/13 00:47:01;;;;;;;4.90;4.40;;;;;;;7.75;68.97;94093.31;5072094;28;20194;-46
2022/12/13 00:49:27;;;;;;;5.53;4.70;;;;;;;7.75;68.98;94093.31;5071781;28;20610;-48
2022/12/13 00:51:54;;;;;;;5.10;4.60;;;;;;;7.75;68.86;94084.88;5072026;28;20653;-47
2022/12/13 00:54:21;;;;;;;4.93;4.20;;;;;;;7.70;69.04;94085.28;5093528;28;20197;-47
2022/12/13 00:56:50;;;;;;;4.87;4.43;;;;;;;7.71;68.86;94086.88;5112498;28;20660;-48
2022/12/13 00:59:16;;;;;;;5.10;4.43;;;;;;;7.71;69.07;94088.63;5112192;28;20644;-48
2022/12/13 01:01:45;;;;;;;5.17;4.67;;;;;;;7.70;68.75;94090.38;5108964;28;20208;-47
2022/12/13 01:04:12;;;;;;;5.73;4.27;;;;;;;7.69;68.81;94093.06;5092587;28;20287;-49
2022/12/13 01:06:42;;;;;;;4.83;4.40;;;;;;;7.70;68.70;94092.09;5092049;28;20497;-48
2022/12/13 01:09:15;;;;;;;5.00;4.40;;;;;;;7.69;68.78;94104.03;5091783;28;20644;-49
2022/12/13 01:11:43;;;;;;;5.03;4.50;;;;;;;7.45;68.66;94066.25;5092027;28;20229;-47
2022/12/13 01:14:09;;;;;;;5.30;4.23;;;;;;;7.66;68.76;94098.41;5091496;28;20221;-50
2022/12/13 01:16:36;;;;;;;5.23;4.30;;;;;;;7.66;68.82;94096.66;5091708;28;20705;-49
2022/12/13 01:19:05;;;;;;;5.17;4.27;;;;;;;7.68;68.78;94097.31;5090614;28;20624;-46
2022/12/13 01:21:32;;;;;;;5.83;4.53;;;;;;;7.63;68.61;94096.91;5091462;28;20190;-49
2022/12/13 01:24:02;;;;;;;5.17;4.67;;;;;;;7.66;68.73;94089.03;5091308;28;20714;-48
2022/12/13 01:26:30;;;;;;;5.73;4.17;;;;;;;7.63;68.57;94093.56;5091536;28;20258;-48
2022/12/13 01:28:57;;;;;;;4.60;3.97;;;;;;;7.65;68.60;94086.63;5091273;28;20217;-49
2022/12/13 01:31:24;;;;;;;4.63;4.13;;;;;;;7.65;68.66;94087.44;5091323;28;20274;-48
2022/12/13 01:33:51;;;;;;;5.00;3.87;;;;;;;7.64;68.68;94079.91;5091339;28;20213;-46
2022/12/13 01:36:21;;;;;;;5.20;4.27;;;;;;;7.60;68.74;94089.56;5091131;28;20189;-53
2022/12/13 01:38:48;;;;;;;6.87;4.80;;;;;;;7.57;68.45;94086.50;5091562;28;20189;-49
2022/12/13 01:41:16;;;;;;;4.37;3.97;;;;;;;7.60;68.46;94099.75;5091158;28;20189;-49
2022/12/13 01:43:55;;;;;;;5.13;4.17;;;;;;;7.37;68.57;94058.50;5091276;28;20194;-48
2022/12/13 01:46:22;;;;;;;5.20;4.70;;;;;;;7.52;68.54;94084.34;5091164;28;20192;-49
2022/12/13 01:48:53;;;;;;;6.47;5.73;;;;;;;7.56;68.48;94092.53;5090972;28;20225;-49
2022/12/13 01:51:27;;;;;;;5.23;4.33;;;;;;;7.52;68.25;94094.53;5091197;28;20219;-48
2022/12/13 01:53:56;;;;;;;5.33;4.33;;;;;;;7.53;68.47;94096.94;5098520;28;20205;-49
2022/12/13 01:56:28;;;;;;;6.17;4.57;;;;;;;7.52;68.28;94099.63;5111350;28;20527;-50
2022/12/13 01:58:56;;;;;;;5.60;4.60;;;;;;;7.48;68.25;94093.19;5111370;28;20196;-49
2022/12/13 02:01:25;;;;;;;6.43;4.60;;;;;;;7.46;68.19;94102.69;5110904;28;20212;-48
2022/12/13 02:03:51;;;;;;;5.40;4.57;;;;;;;7.43;68.25;94102.97;5111641;27;20204;-47
2022/12/13 02:06:27;;;;;;;5.73;4.53;;;;;;;7.23;68.03;94077.50;5111177;28;20763;-47
2022/12/13 02:08:54;;;;;;;5.43;4.83;;;;;;;7.39;68.18;94099.09;5111284;28;20203;-48
2022/12/13 02:11:21;;;;;;;5.97;4.97;;;;;;;7.37;68.40;94095.84;5111228;28;20259;-47
2022/12/13 02:13:48;;;;;;;5.40;4.87;;;;;;;7.33;68.20;94097.06;5110773;27;20221;-47
2022/12/13 02:16:23;;;;;;;5.87;5.27;;;;;;;7.31;68.07;94096.38;5110688;28;20227;-47
2022/12/13 02:19:09;;;;;;;5.90;4.50;;;;;;;7.25;68.18;94083.28;5110997;28;20250;-49
2022/12/13 02:21:45;;;;;;;5.80;5.20;;;;;;;7.25;68.24;94082.44;5110700;28;20199;-48
2022/12/13 02:24:43;;;;;;;7.23;5.43;;;;;;;7.21;68.30;94094.66;5110550;28;20192;-47
2022/12/13 02:27:37;;;;;;;5.73;5.13;;;;;;;7.18;68.37;94089.00;5110772;27;20204;-49
2022/12/13 02:30:25;;;;;;;5.83;4.77;;;;;;;7.15;68.21;94099.44;5110772;28;20188;-49
2022/12/13 02:33:04;;;;;;;7.37;5.17;;;;;;;7.12;68.35;94095.41;5110212;28;20204;-47
2022/12/13 02:35:39;;;;;;;6.67;5.23;;;;;;;7.10;68.47;94104.91;5110877;28;20180;-48
2022/12/13 02:38:13;;;;;;;6.17;5.07;;;;;;;7.09;68.46;94100.78;5110268;28;20181;-48
2022/12/13 02:40:45;;;;;;;5.97;4.87;;;;;;;7.07;68.33;94100.09;5110413;28;20644;-48
2022/12/13 02:43:16;;;;;;;6.33;5.37;;;;;;;7.07;68.14;94112.81;5109963;28;20257;-48
2022/12/13 02:45:48;;;;;;;5.87;5.23;;;;;;;6.78;68.21;94067.81;5110496;27;20189;-48
2022/12/13 02:48:21;;;;;;;5.43;4.93;;;;;;;7.00;68.24;94099.03;5110061;28;20589;-49
2022/12/13 02:50:51;;;;;;;6.70;5.30;;;;;;;7.03;68.04;94107.16;5110190;28;20706;-48
2022/12/13 02:53:18;;;;;;;6.57;5.03;;;;;;;7.01;68.23;94103.16;5091047;27;20220;-49
2022/12/13 02:55:45;;;;;;;6.80;5.27;;;;;;;6.99;68.18;94099.94;5090106;28;20182;-48
2022/12/13 02:58:13;;;;;;;5.20;4.70;;;;;;;6.92;68.23;94102.22;5089355;28;20597;-48
2022/12/13 03:00:53;;;;;;;5.67;5.07;;;;;;;6.93;68.12;94115.72;5090038;28;20209;-47
2022/12/13 03:03:32;;;;;;;5.53;4.90;;;;;;;6.88;68.08;94107.69;5089498;28;20226;-49
2022/12/13 03:09:06;;;;;;;5.23;4.73;;;;;;;6.63;68.24;94091.94;5089586;28;20189;-47
2022/12/13 03:14:26;;;;;;;6.53;5.70;;;;;;;6.75;68.22;94115.53;5089326;28;20229;-47
2022/12/13 03:16:55;;;;;;;6.47;5.00;;;;;;;6.72;68.21;94113.25;5089112;28;20232;-48
2022/12/13 03:19:22;;;;;;;6.50;4.67;;;;;;;6.71;68.18;94116.72;5089455;28;20188;-49
2022/12/13 03:21:50;;;;;;;6.70;5.50;;;;;;;6.68;68.36;94111.88;5089515;28;20204;-49
2022/12/13 03:24:18;;;;;;;7.00;5.30;;;;;;;6.66;68.32;94113.78;5089481;28;20189;-47
2022/12/13 03:26:46;;;;;;;5.77;5.13;;;;;;;6.65;68.47;94112.97;5089110;28;20200;-46
2022/12/13 03:29:13;;;;;;;5.33;4.80;;;;;;;6.61;68.30;94116.69;5089253;28;20246;-48
2022/12/13 03:31:39;;;;;;;8.00;5.40;;;;;;;6.60;68.21;94115.06;5089385;28;20874;-47
2022/12/13 03:34:07;;;;;;;6.83;5.50;;;;;;;6.58;68.33;94121.22;5089354;28;20229;-51
2022/12/13 03:36:34;;;;;;;7.27;5.93;;;;;;;6.56;68.35;94121.34;5089037;28;20189;-49
2022/12/13 03:39:01;;;;;;;8.50;5.50;;;;;;;6.54;68.17;94125.75;5089286;28;20193;-47
2022/12/13 03:41:30;;;;;;;6.07;5.00;;;;;;;6.49;68.13;94115.16;5088542;28;20189;-48
2022/12/13 03:43:57;;;;;;;6.63;5.43;;;;;;;6.47;68.09;94117.03;5089101;28;20212;-50
2022/12/13 03:46:24;;;;;;;6.50;5.80;;;;;;;6.45;67.96;94114.63;5088645;28;20186;-47
2022/12/13 03:48:51;;;;;;;7.53;6.07;;;;;;;6.42;67.99;94119.94;5089467;28;20600;-48
2022/12/13 03:51:19;;;;;;;6.37;5.73;;;;;;;6.42;67.91;94129.28;5089048;28;20204;-49
2022/12/13 03:53:46;;;;;;;6.10;5.10;;;;;;;6.39;68.09;94135.44;5095239;28;20231;-48
2022/12/13 03:56:13;;;;;;;7.07;5.70;;;;;;;6.37;68.07;94137.28;5109309;28;20623;-47
2022/12/13 03:58:41;;;;;;;7.33;5.23;;;;;;;6.36;68.03;94134.88;5108949;28;20189;-48
2022/12/13 04:01:09;;;;;;;6.87;5.30;;;;;;;6.33;68.04;94132.59;5109267;28;20189;-47
2022/12/13 04:03:38;;;;;;;6.17;5.37;;;;;;;6.30;68.08;94143.78;5109299;28;20185;-51
2022/12/13 04:06:05;;;;;;;5.33;4.83;;;;;;;6.29;68.04;94139.66;5109577;28;20263;-47
2022/12/13 04:08:34;;;;;;;6.37;5.00;;;;;;;6.27;68.07;94146.59;5109098;28;20189;-48
2022/12/13 04:13:31;;;;;;;6.87;5.77;;;;;;;6.24;68.13;94146.84;5109495;28;20189;-50
2022/12/13 04:13:48;;;;;;;6.27;5.30;;;;;;;6.24;67.98;94154.47;5108774;28;20223;-54
2022/12/13 04:16:15;;;;;;;6.63;5.10;;;;;;;6.18;67.93;94140.53;5109211;28;20673;-50
2022/12/13 04:18:41;;;;;;;7.60;5.13;;;;;;;6.21;67.86;94157.25;5109085;28;20193;-48
2022/12/13 04:21:08;;;;;;;7.07;5.60;;;;;;;6.17;68.02;94158.41;5109345;28;20189;-48
2022/12/13 04:23:36;;;;;;;6.40;5.33;;;;;;;6.13;67.81;94162.97;5108948;28;20189;-49
2022/12/13 04:26:03;;;;;;;7.37;5.20;;;;;;;5.99;67.80;94142.94;5109182;28;20193;-48
2022/12/13 04:28:30;;;;;;;7.87;5.67;;;;;;;6.01;67.73;94163.94;5109007;28;20258;-48
2022/12/13 04:30:57;;;;;;;7.17;5.50;;;;;;;6.10;67.75;94178.44;5109112;28;20687;-48
2022/12/13 04:33:24;;;;;;;6.03;5.40;;;;;;;6.07;67.70;94178.66;5108830;28;20302;-47
2022/12/13 04:35:51;;;;;;;7.80;5.77;;;;;;;5.98;67.70;94180.22;5109496;28;20177;-51
2022/12/13 04:38:32;;;;;;;7.13;5.80;;;;;;;6.04;67.73;94194.13;5109318;28;20193;-50
2022/12/13 04:41:28;;;;;;;6.97;5.60;;;;;;;6.02;67.69;94193.47;5109509;28;20199;-47
2022/12/13 04:43:54;;;;;;;7.57;5.60;;;;;;;5.99;67.76;94189.44;5109494;28;20193;-48
2022/12/13 04:46:22;;;;;;;8.93;5.63;;;;;;;5.85;67.82;94178.75;5109082;28;20285;-48
2022/12/13 04:48:51;;;;;;;7.27;5.87;;;;;;;5.96;67.66;94193.97;5109181;28;20198;-48
2022/12/13 04:51:22;;;;;;;7.57;6.23;;;;;;;5.96;67.66;94204.13;5109942;28;20587;-50
2022/12/13 04:53:49;;;;;;;8.63;5.40;;;;;;;5.21;67.47;94094.13;5110960;28;20209;-47
2022/12/13 04:56:17;;;;;;;8.80;5.60;;;;;;;5.92;67.50;94203.56;5112591;28;20659;-48
2022/12/13 04:58:43;;;;;;;7.23;5.53;;;;;;;5.91;67.57;94208.69;5112178;28;20200;-48
2022/12/13 05:01:10;;;;;;;7.80;5.80;;;;;;;5.89;67.72;94208.03;5112483;27;20649;-49
2022/12/13 05:03:38;;;;;;;6.93;5.73;;;;;;;5.74;67.60;94187.19;5112274;28;20656;-46
2022/12/13 05:06:06;;;;;;;6.57;5.57;;;;;;;5.87;67.50;94215.78;5112423;28;20192;-47
2022/12/13 05:08:33;;;;;;;6.43;5.53;;;;;;;5.88;67.72;94211.50;5112497;28;20242;-46
2022/12/13 05:11:00;;;;;;;6.80;6.00;;;;;;;5.90;67.47;94214.72;5112756;28;20181;-48
2022/12/13 05:13:28;;;;;;;7.57;5.57;;;;;;;5.91;67.56;94213.78;5111686;28;20197;-48
2022/12/13 05:15:56;;;;;;;5.83;5.23;;;;;;;5.93;67.45;94220.38;5111990;28;20236;-50
2022/12/13 05:18:26;;;;;;;7.80;6.07;;;;;;;5.93;67.23;94217.84;5112341;28;20292;-48
2022/12/13 05:20:53;;;;;;;8.20;5.67;;;;;;;5.75;67.28;94188.81;5112611;28;20196;-46
2022/12/13 05:23:21;;;;;;;9.17;6.23;;;;;;;5.96;67.08;94219.34;5111972;28;20280;-49
2022/12/13 05:25:48;;;;;;;6.60;5.87;;;;;;;5.95;67.00;94210.09;5112383;28;20211;-54
2022/12/13 05:28:15;;;;;;;6.80;5.40;;;;;;;6.02;66.93;94221.38;5111910;28;20188;-47
2022/12/13 05:30:44;;;;;;;7.83;5.63;;;;;;;5.80;67.03;94186.72;5111423;28;20225;-48
2022/12/13 05:33:11;;;;;;;7.10;6.10;;;;;;;6.04;66.62;94222.06;5111836;28;20192;-47
2022/12/13 05:35:37;;;;;;;6.17;5.27;;;;;;;6.05;66.97;94225.41;5111564;28;20196;-48
2022/12/13 05:38:05;;;;;;;6.40;5.80;;;;;;;6.05;66.96;94223.69;5111688;28;20177;-54
2022/12/13 05:40:32;;;;;;;8.30;6.20;;;;;;;6.07;66.74;94228.63;5111356;28;20189;-48
2022/12/13 05:42:59;;;;;;;9.37;6.30;;;;;;;6.09;66.90;94242.81;5112012;28;20184;-47
2022/12/13 05:45:26;;;;;;;7.17;5.60;;;;;;;6.04;66.67;94242.34;5111105;28;20189;-47
2022/12/13 05:47:54;;;;;;;6.17;5.37;;;;;;;6.10;66.56;94249.50;5111539;28;20197;-49
2022/12/13 05:50:21;;;;;;;7.27;5.80;;;;;;;6.11;66.45;94245.22;5110959;28;20310;-47
2022/12/13 05:52:48;;;;;;;7.47;6.13;;;;;;;6.09;66.57;94247.91;5111566;28;20230;-48
2022/12/13 05:55:15;;;;;;;6.90;6.17;;;;;;;6.15;66.42;94255.03;5111141;28;20714;-48
2022/12/13 05:57:41;;;;;;;6.83;5.97;;;;;;;6.16;66.56;94256.63;5111522;28;20189;-48
2022/12/13 06:00:11;;;;;;;6.83;5.83;;;;;;;6.18;66.34;94264.94;5092409;28;20193;-48
2022/12/13 06:02:39;;;;;;;7.33;6.27;;;;;;;6.13;66.36;94258.59;5090930;28;20679;-47
2022/12/13 06:05:08;;;;;;;6.13;4.57;;;;;;;6.86;100.00;94269.66;5089228;28;20209;-48
2022/12/13 06:07:35;;;;;;;9.57;5.00;;;;;;;7.28;100.00;94267.84;5081365;28;20193;-51
2022/12/13 06:10:02;;;;;;;5.47;4.53;;;;;;;7.43;96.43;94266.56;5090206;28;20254;-46
2022/12/13 06:12:29;;;;;;;10.90;5.00;;;;;;;7.47;92.74;94262.00;5089697;28;20190;-49
2022/12/13 06:14:56;;;;;;;8.47;5.37;;;;;;;7.48;88.26;94268.72;5090310;28;20237;-48
2022/12/13 06:17:24;;;;;;;7.83;5.20;;;;;;;7.46;84.18;94268.84;5090487;28;20190;-47
2022/12/13 06:19:51;;;;;;;5.63;5.07;;;;;;;7.42;81.40;94266.66;5090154;28;20197;-47
2022/12/13 06:22:20;;;;;;;7.23;5.17;;;;;;;7.36;79.83;94251.94;5089923;28;20200;-45
2022/12/13 06:24:47;;;;;;;7.00;5.27;;;;;;;7.39;78.84;94261.88;5089498;28;20200;-47
2022/12/13 06:27:14;;;;;;;6.80;5.37;;;;;;;7.28;78.03;94266.09;5089906;28;20178;-48
2022/12/13 06:29:41;;;;;;;8.90;6.03;;;;;;;7.33;77.29;94270.00;5090434;28;20680;-48
2022/12/13 06:32:07;;;;;;;10.63;6.00;;;;;;;7.31;76.98;94274.41;5090232;28;20186;-46
2022/12/13 06:34:36;;;;;;;10.60;5.97;;;;;;;7.29;76.66;94271.97;5090137;28;20232;-46
2022/12/13 06:37:04;;;;;;;10.80;6.60;;;;;;;7.29;76.34;94282.16;5089878;28;20181;-47
2022/12/13 06:39:32;;;;;;;12.77;6.47;;;;;;;7.10;76.21;94251.56;5089813;28;20193;-49
2022/12/13 06:42:00;;;;;;;9.53;6.73;;;;;;;7.28;75.80;94283.09;5089694;28;20201;-46
2022/12/13 06:44:27;;;;;;;7.70;6.60;;;;;;;7.29;75.59;94280.41;5089799;28;20185;-46
2022/12/13 06:46:53;;;;;;;7.67;6.13;;;;;;;7.31;75.25;94282.06;5089969;28;20185;-47
2022/12/13 06:49:20;;;;;;;8.53;6.37;;;;;;;7.32;74.97;94283.66;5089776;28;20197;-48
2022/12/13 06:51:47;;;;;;;11.87;7.40;;;;;;;7.34;74.40;94281.78;5089899;28;20196;-49
2022/12/13 06:54:14;;;;;;;12.97;7.03;;;;;;;7.36;74.12;94279.91;5089145;28;20680;-46
2022/12/13 06:56:42;;;;;;;8.97;6.93;;;;;;;7.40;73.83;94287.16;5089274;28;20216;-49
2022/12/13 06:59:09;;;;;;;9.77;7.40;;;;;;;7.44;73.60;94288.53;5087580;28;20197;-50
2022/12/13 07:01:36;;;;;;;10.47;7.80;;;;;;;7.49;73.24;94281.31;5088696;28;20598;-47
2022/12/13 07:04:03;;;;;;;9.00;7.03;;;;;;;7.57;72.89;94279.84;5089005;28;20194;-46
2022/12/13 07:06:29;;;;;;;10.00;7.27;;;;;;;7.65;72.81;94291.00;5088968;28;20194;-46
2022/12/13 07:08:58;;;;;;;10.87;7.13;;;;;;;7.78;72.46;94281.38;5086091;28;20631;-48
2022/12/13 07:11:27;;;;;;;8.90;7.10;;;;;;;7.90;72.12;94292.28;5088899;28;20307;-47
2022/12/13 07:13:56;;;;;;;10.50;7.17;;;;;;;8.13;71.90;94299.66;5088271;28;20209;-45
2022/12/13 07:16:24;;;;;;;9.87;7.47;;;;;;;8.31;71.70;94295.50;5087818;28;20219;-47
2022/12/13 07:18:54;;;;;;;9.53;7.50;;;;;;;8.51;71.14;94311.66;5088342;28;20202;-46
2022/12/13 07:21:21;;;;;;;8.97;7.83;;;;;;;8.65;70.88;94308.69;5089136;28;20193;-46
2022/12/13 07:23:49;;;;;;;8.60;6.70;;;;;;;8.86;70.58;94305.97;5088512;28;20196;-48
2022/12/13 07:26:16;;;;;;;10.00;7.90;;;;;;;9.03;70.22;94304.47;5088797;28;20209;-46
2022/12/13 07:28:43;;;;;;;11.53;8.20;;;;;;;9.20;69.85;94310.63;5088572;28;20182;-48
2022/12/13 07:31:12;;;;;;;10.03;8.20;;;;;;;9.37;69.41;94309.06;5088386;28;20220;-47
2022/12/13 07:33:39;;;;;;;11.70;8.43;;;;;;;9.50;69.07;94309.56;5089195;28;20189;-47
2022/12/13 07:36:09;;;;;;;12.97;8.60;;;;;;;9.63;68.60;94320.25;5088389;28;20205;-46
2022/12/13 07:38:36;;;;;;;9.60;7.97;;;;;;;9.77;68.42;94317.22;5088941;28;20190;-47
2022/12/13 07:41:04;;;;;;;10.87;8.07;;;;;;;9.86;68.13;94305.34;5088800;28;20193;-47
2022/12/13 07:43:32;;;;;;;10.67;7.63;;;;;;;9.78;68.08;94283.09;5088899;28;20684;-46
2022/12/13 07:45:59;;;;;;;10.20;8.67;;;;;;;9.97;67.37;94309.44;5089683;28;20190;-47
2022/12/13 07:48:28;;;;;;;10.10;8.03;;;;;;;10.04;67.18;94313.06;5088462;28;20939;-46
2022/12/13 07:51:00;;;;;;;9.37;7.43;;;;;;;10.10;66.83;94319.34;5088288;28;20220;-47
2022/12/13 07:53:27;;;;;;;13.07;8.47;;;;;;;10.11;66.60;94320.97;5088533;28;20189;-47
2022/12/13 07:55:54;;;;;;;10.80;8.23;;;;;;;10.13;66.36;94313.94;5088150;28;20668;-46
2022/12/13 07:58:21;;;;;;;9.87;7.90;;;;;;;10.24;65.85;94322.25;5088065;28;20197;-47
2022/12/13 08:00:48;;;;;;;9.63;7.77;;;;;;;10.36;65.53;94329.69;5087846;28;20202;-47
2022/12/13 08:03:15;;;;;;;9.30;8.13;;;;;;;10.47;64.98;94317.50;5087725;28;20306;-47
2022/12/13 08:05:43;;;;;;;10.60;8.03;;;;;;;10.52;64.58;94322.97;5087494;28;20182;-47
2022/12/13 08:08:10;;;;;;;12.63;8.17;;;;;;;10.51;64.11;94334.16;5088227;28;20189;-47
2022/12/13 08:10:37;;;;;;;12.13;8.43;;;;;;;10.49;63.96;94330.94;5087966;28;20181;-47
2022/12/13 08:13:06;;;;;;;10.33;8.47;;;;;;;10.53;63.69;94339.94;5087499;28;20186;-49
2022/12/13 08:15:32;;;;;;;11.60;8.50;;;;;;;10.40;63.34;94318.22;5088032;28;20241;-46
2022/12/13 08:18:00;;;;;;;11.77;9.67;;;;;;;10.30;63.22;94308.88;5088060;28;20633;-47
2022/12/13 08:20:28;;;;;;;12.10;8.93;;;;;;;10.31;62.80;94309.66;5087996;28;20225;-47
2022/12/13 08:22:57;;;;;;;11.47;8.43;;;;;;;10.53;62.61;94347.59;5087604;28;20189;-48
2022/12/13 08:25:24;;;;;;;10.23;8.50;;;;;;;10.62;62.00;94351.03;5087949;28;20199;-46
2022/12/13 08:27:52;;;;;;;9.03;7.77;;;;;;;10.74;61.63;94349.03;5089889;28;20201;-49
2022/12/13 08:30:19;;;;;;;12.00;8.53;;;;;;;10.85;61.08;94345.47;5092291;28;20205;-50
2022/12/13 08:32:45;;;;;;;10.53;8.07;;;;;;;10.96;60.49;94332.44;5091512;28;20198;-49
2022/12/13 08:35:12;;;;;;;11.47;8.70;;;;;;;11.11;59.73;94332.72;5091869;28;20221;-47
2022/12/13 08:37:39;;;;;;;12.03;9.27;;;;;;;11.09;59.42;94326.94;5091829;28;20219;-48
2022/12/13 08:40:09;;;;;;;13.37;9.33;;;;;;;11.05;59.48;94329.81;5091684;28;20182;-48
2022/12/13 08:42:36;;;;;;;11.87;8.03;;;;;;;11.02;59.02;94339.53;5091250;28;20291;-49
2022/12/13 08:45:03;;;;;;;11.87;8.77;;;;;;;10.98;59.16;94336.47;5088977;28;20198;-46
2022/12/13 08:47:30;;;;;;;12.63;8.40;;;;;;;10.98;58.88;94327.97;5091816;28;20228;-49
2022/12/13 08:49:59;;;;;;;11.67;9.07;;;;;;;10.97;58.85;94321.28;5091692;28;20186;-46
2022/12/13 08:52:25;;;;;;;11.37;8.67;;;;;;;11.00;58.81;94324.31;5091558;28;20193;-48
2022/12/13 08:54:52;;;;;;;12.23;9.53;;;;;;;11.02;58.43;94312.19;5090413;28;20603;-46
2022/12/13 08:57:20;;;;;;;10.37;8.70;;;;;;;11.01;58.16;94299.53;5091412;28;20232;-48
2022/12/13 08:59:47;;;;;;;13.13;9.17;;;;;;;10.92;58.24;94285.06;5088138;28;20202;-46
2022/12/13 09:02:15;;;;;;;12.30;9.43;;;;;;;11.04;58.19;94310.25;5091767;28;20185;-52
2022/12/13 09:04:42;;;;;;;12.17;9.40;;;;;;;11.06;58.03;94297.34;5088454;28;21004;-49
2022/12/13 09:07:09;;;;;;;12.73;9.33;;;;;;;11.08;57.85;94294.63;5089164;28;20227;-46
2022/12/13 09:09:36;;;;;;;11.30;8.97;;;;;;;10.90;57.81;94264.75;5090859;28;20722;-48
2022/12/13 09:12:03;;;;;;;10.97;8.70;;;;;;;10.97;57.47;94272.66;5088652;28;20190;-49
2022/12/13 09:14:31;;;;;;;13.23;8.87;;;;;;;11.13;57.62;94290.66;5090688;28;20209;-48
2022/12/13 09:16:58;;;;;;;11.87;9.13;;;;;;;11.15;57.48;94299.00;5091637;28;20197;-46
2022/12/13 09:19:25;;;;;;;15.03;8.70;;;;;;;11.16;57.20;94282.69;5091248;28;20197;-46
2022/12/13 09:21:52;;;;;;;10.33;8.23;;;;;;;11.16;57.40;94277.56;5091822;28;20209;-49
2022/12/13 09:24:19;;;;;;;10.00;8.10;;;;;;;11.14;57.18;94274.38;5091077;28;20190;-47
2022/12/13 09:26:46;;;;;;;12.23;8.57;;;;;;;11.17;57.11;94274.03;5090653;28;20607;-48
2022/12/13 09:29:15;;;;;;;10.77;8.37;;;;;;;11.16;57.09;94266.53;5091371;28;20637;-49
2022/12/13 09:31:43;;;;;;;11.20;8.27;;;;;;;11.18;56.90;94264.59;5090779;28;20232;-49
2022/12/13 09:34:10;;;;;;;12.27;7.97;;;;;;;11.18;56.91;94262.03;5091090;28;20262;-50
2022/12/13 09:36:37;;;;;;;9.97;8.13;;;;;;;11.18;56.94;94262.88;5090471;28;20229;-48
2022/12/13 09:39:04;;;;;;;8.97;7.40;;;;;;;11.19;56.74;94273.91;5089708;28;20193;-47
2022/12/13 09:41:35;;;;;;;9.43;8.13;;;;;;;10.96;56.48;94235.22;5090604;28;20186;-49
2022/12/13 09:44:05;;;;;;;8.47;7.40;;;;;;;11.17;56.60;94261.25;5088611;28;20196;-46
2022/12/13 09:46:35;;;;;;;9.67;6.90;;;;;;;11.19;56.42;94258.56;5090556;28;20212;-47
2022/12/13 09:49:07;;;;;;;7.70;6.80;;;;;;;11.18;56.27;94262.88;5090499;28;20197;-47
2022/12/13 09:51:34;;;;;;;8.87;6.87;;;;;;;11.13;56.11;94257.38;5090512;28;20193;-47
2022/12/13 09:54:01;;;;;;;7.57;6.47;;;;;;;11.12;56.03;94254.97;5090705;28;20197;-48
2022/12/13 09:56:28;;;;;;;10.37;7.13;;;;;;;11.15;56.13;94259.81;5090081;28;20680;-46
2022/12/13 09:58:56;;;;;;;8.63;6.73;;;;;;;11.12;55.80;94266.00;5089605;28;20201;-46
2022/12/13 10:01:24;;;;;;;7.37;6.23;;;;;;;10.95;55.92;94231.84;5087789;28;20209;-47
2022/12/13 10:03:54;;;;;;;7.57;6.20;;;;;;;11.15;55.58;94265.72;5087452;28;20682;-46
2022/12/13 10:06:23;;;;;;;8.67;7.00;;;;;;;11.12;55.45;94266.00;5087434;28;20198;-47
2022/12/13 10:08:52;;;;;;;8.90;7.10;;;;;;;11.11;55.20;94261.84;5087739;28;20850;-47
2022/12/13 10:11:20;;;;;;;8.97;6.73;;;;;;;11.10;55.26;94262.03;5087080;28;20738;-46
2022/12/13 10:13:54;;;;;;;7.57;6.37;;;;;;;11.09;55.10;94260.41;5086318;28;20200;-48
2022/12/13 10:16:30;;;;;;;7.93;6.00;;;;;;;11.08;54.68;94253.69;5085201;28;21690;-48
2022/12/13 10:18:57;;;;;;;7.77;6.67;;;;;;;11.09;54.82;94250.16;5087716;28;20190;-47
2022/12/13 10:21:30;;;;;;;8.83;6.17;;;;;;;11.09;54.60;94253.53;5087970;28;20205;-47
2022/12/13 10:24:06;;;;;;;11.17;6.37;;;;;;;11.10;54.30;94252.59;5087127;28;20276;-46
2022/12/13 10:26:37;;;;;;;8.43;6.37;;;;;;;11.12;54.32;94242.19;5087176;28;20197;-47
2022/12/13 10:29:05;;;;;;;6.67;6.00;;;;;;;10.93;53.83;94194.59;5087593;28;20189;-49
2022/12/13 10:31:40;;;;;;;7.40;6.57;;;;;;;11.10;54.06;94211.66;5087095;28;20252;-46
2022/12/13 10:34:20;;;;;;;6.53;5.47;;;;;;;11.16;54.05;94212.78;5087788;28;20204;-47
2022/12/13 10:36:49;;;;;;;7.27;5.87;;;;;;;11.20;54.15;94207.19;5088491;28;20249;-47
2022/12/13 10:39:19;;;;;;;6.77;5.53;;;;;;;11.23;53.74;94209.47;5088978;28;20854;-47
2022/12/13 10:41:46;;;;;;;7.73;5.60;;;;;;;11.07;53.87;94185.56;5089187;28;20676;-48
2022/12/13 10:44:24;;;;;;;6.73;5.93;;;;;;;11.27;53.58;94203.09;5089312;28;20217;-48
2022/12/13 10:47:03;;;;;;;6.93;5.77;;;;;;;11.32;53.79;94201.81;5088824;28;20284;-46
2022/12/13 10:49:38;;;;;;;6.13;5.43;;;;;;;11.27;53.79;94205.63;5089230;28;20200;-45
2022/12/13 10:52:20;;;;;;;6.70;5.30;;;;;;;11.22;53.96;94199.34;5088887;28;20276;-47
2022/12/13 10:54:49;;;;;;;7.70;5.43;;;;;;;11.01;53.69;94174.16;5088118;28;20276;-46
2022/12/13 10:57:17;;;;;;;7.90;5.53;;;;;;;11.08;53.84;94190.50;5088834;28;20201;-48
2022/12/13 10:59:45;;;;;;;6.03;5.33;;;;;;;11.02;53.96;94189.38;5086856;28;20193;-47
2022/12/13 11:02:29;;;;;;;6.60;5.37;;;;;;;10.98;54.00;94192.38;5088947;28;20193;-47
2022/12/13 11:04:57;;;;;;;6.83;5.53;;;;;;;11.00;53.81;94183.59;5088186;28;20567;-47
2022/12/13 11:07:28;;;;;;;6.23;5.17;;;;;;;10.94;53.69;94168.84;5088364;28;20224;-49
2022/12/13 11:09:55;;;;;;;6.53;5.50;;;;;;;11.07;53.48;94183.78;5087920;28;20205;-48
2022/12/13 11:12:24;;;;;;;6.00;5.13;;;;;;;11.09;53.48;94189.53;5089393;28;20186;-50
2022/12/13 11:14:55;;;;;;;5.77;5.17;;;;;;;11.09;53.33;94170.84;5088202;28;20201;-46
2022/12/13 11:17:25;;;;;;;6.87;5.60;;;;;;;11.10;53.32;94170.69;5088202;28;20197;-46
2022/12/13 11:19:56;;;;;;;6.50;5.67;;;;;;;11.11;53.23;94172.28;5088024;28;20203;-47
2022/12/13 11:22:26;;;;;;;6.97;6.27;;;;;;;11.12;52.87;94171.34;5088578;28;20215;-46
2022/12/13 11:25:00;;;;;;;6.03;5.27;;;;;;;11.14;52.87;94160.94;5087972;28;20221;-45
2022/12/13 11:27:56;;;;;;;6.73;5.37;;;;;;;11.16;53.24;94164.16;5086071;28;20189;-46
2022/12/13 11:30:31;;;;;;;7.67;6.00;;;;;;;11.16;53.05;94166.72;5086317;28;20186;-47
2022/12/13 11:33:09;;;;;;;7.17;5.60;;;;;;;11.16;53.02;94171.84;5088460;28;20185;-46
2022/12/13 11:35:57;;;;;;;6.67;5.37;;;;;;;11.17;53.08;94173.44;5087537;28;20217;-47
2022/12/13 11:38:32;;;;;;;7.47;5.77;;;;;;;11.17;53.02;94186.22;5088096;28;20186;-46
2022/12/13 11:41:06;;;;;;;8.17;5.93;;;;;;;11.07;53.11;94170.19;5087911;28;20189;-47
2022/12/13 11:43:37;;;;;;;6.40;5.70;;;;;;;11.17;53.10;94169.09;5087928;28;20212;-45
2022/12/13 11:46:11;;;;;;;7.97;5.90;;;;;;;11.17;52.96;94168.31;5088184;28;20308;-49
2022/12/13 11:48:44;;;;;;;7.53;5.47;;;;;;;11.14;53.10;94171.16;5088149;28;20189;-45
2022/12/13 11:51:15;;;;;;;7.17;6.23;;;;;;;11.15;52.95;94175.34;5089002;28;20189;-46